createdAt,value
2018-07-10T00:02:19.977Z,63.10
2018-07-10T00:07:02.294Z,62.40
2018-07-10T00:10:37.213Z,62.30
2018-07-10T00:13:06.506Z,63.10
2018-07-10T00:15:35.351Z,63.60
2018-07-10T00:18:04.193Z,63.30
2018-07-10T00:20:33.422Z,63.10
2018-07-10T00:23:02.280Z,62.40
2018-07-10T00:25:31.089Z,62.00
2018-07-10T00:28:00.150Z,61.70
2018-07-10T00:30:29.081Z,62.20
2018-07-10T00:35:26.725Z,61.80
2018-07-10T00:38:06.675Z,61.40
2018-07-10T00:40:35.584Z,62.00
2018-07-10T00:43:08.630Z,61.90
2018-07-10T00:45:37.630Z,61.80
2018-07-10T00:48:06.579Z,63.60
2018-07-10T00:50:35.478Z,62.60
2018-07-10T00:53:04.403Z,62.00
2018-07-10T00:55:33.334Z,62.00
2018-07-10T00:58:02.290Z,62.20
2018-07-10T01:00:33.194Z,62.20
2018-07-10T01:03:02.304Z,61.00
2018-07-10T01:05:31.977Z,61.50
2018-07-10T01:08:01.090Z,60.00
2018-07-10T01:10:29.992Z,60.60
2018-07-10T01:12:58.834Z,61.50
2018-07-10T01:17:56.904Z,62.70
2018-07-10T01:20:25.821Z,63.10
2018-07-10T01:22:55.465Z,63.40
2018-07-10T01:25:25.439Z,63.20
2018-07-10T01:27:54.363Z,62.60
2018-07-10T01:30:23.369Z,63.00
2018-07-10T01:32:52.579Z,62.40
2018-07-10T01:35:21.449Z,62.30
2018-07-10T01:37:50.485Z,62.40
2018-07-10T01:40:19.321Z,62.60
2018-07-10T01:42:48.197Z,62.00
2018-07-10T01:45:17.352Z,62.40
2018-07-10T01:47:46.147Z,61.70
2018-07-10T01:50:15.001Z,62.10
2018-07-10T01:52:43.919Z,61.70
2018-07-10T01:55:12.862Z,62.10
2018-07-10T01:57:41.680Z,62.00
2018-07-10T02:00:12.054Z,62.00
2018-07-10T02:02:40.964Z,61.90
2018-07-10T02:05:09.898Z,61.40
2018-07-10T02:07:38.963Z,61.90
2018-07-10T02:10:07.777Z,62.10
2018-07-10T02:12:36.677Z,62.70
2018-07-10T02:15:05.612Z,61.70
2018-07-10T02:17:34.455Z,61.60
2018-07-10T02:20:03.452Z,61.50
2018-07-10T02:22:32.441Z,60.60
2018-07-10T02:25:01.408Z,61.00
2018-07-10T02:27:30.332Z,60.20
2018-07-10T02:29:59.777Z,61.50
2018-07-10T02:32:28.686Z,61.50
2018-07-10T02:34:57.614Z,61.00
2018-07-10T02:37:26.695Z,61.10
2018-07-10T02:39:55.651Z,60.80
2018-07-10T02:42:24.606Z,59.70
2018-07-10T02:44:53.931Z,59.70
2018-07-10T02:47:22.795Z,60.30
2018-07-10T02:49:51.703Z,60.20
2018-07-10T02:52:20.763Z,60.70
2018-07-10T02:54:49.675Z,60.00
2018-07-10T02:57:18.627Z,60.00
2018-07-10T02:59:47.546Z,60.50
2018-07-10T03:02:22.722Z,60.60
2018-07-10T03:04:56.254Z,59.80
2018-07-10T03:07:26.385Z,60.30
2018-07-10T03:09:56.668Z,60.40
2018-07-10T03:14:55.631Z,60.30
2018-07-10T03:17:24.670Z,60.70
2018-07-10T03:19:53.598Z,60.40
2018-07-10T03:22:22.564Z,60.80
2018-07-10T03:24:51.442Z,60.50
2018-07-10T03:27:20.550Z,59.30
2018-07-10T03:29:49.406Z,59.80
2018-07-10T03:32:18.427Z,60.30
2018-07-10T03:34:47.437Z,60.30
2018-07-10T03:37:16.361Z,60.30
2018-07-10T03:39:46.068Z,60.10
2018-07-10T03:42:15.049Z,59.20
2018-07-10T03:44:45.937Z,59.70
2018-07-10T03:47:16.786Z,60.10
2018-07-10T03:49:46.721Z,60.00
2018-07-10T03:52:23.844Z,60.60
2018-07-10T03:54:53.751Z,60.00
2018-07-10T03:59:54.795Z,59.50
2018-07-10T04:02:25.153Z,60.10
2018-07-10T04:04:54.677Z,60.00
2018-07-10T04:07:24.282Z,60.10
2018-07-10T04:09:55.112Z,60.60
2018-07-10T04:12:28.603Z,59.90
2018-07-10T04:14:57.461Z,60.40
2018-07-10T04:17:30.922Z,59.20
2018-07-10T04:19:59.807Z,60.00
2018-07-10T04:22:28.795Z,60.20
2018-07-10T04:24:58.442Z,60.50
2018-07-10T04:27:36.784Z,58.50
2018-07-10T04:30:16.872Z,59.20
2018-07-10T04:32:45.781Z,59.60
2018-07-10T04:35:15.937Z,59.00
2018-07-10T04:40:14.726Z,59.40
2018-07-10T04:42:56.136Z,59.30
2018-07-10T04:45:28.306Z,58.90
2018-07-10T04:47:58.166Z,57.90
2018-07-10T04:50:44.547Z,57.50
2018-07-10T04:53:23.720Z,58.00
2018-07-10T04:55:52.870Z,57.80
2018-07-10T04:58:22.701Z,58.50
2018-07-10T05:00:55.581Z,57.20
2018-07-10T05:03:26.961Z,57.90
2018-07-10T05:05:57.622Z,57.40
2018-07-10T05:08:26.546Z,57.90
2018-07-10T05:10:56.145Z,57.10
2018-07-10T05:13:26.735Z,56.40
2018-07-10T05:16:00.142Z,56.30
2018-07-10T05:18:29.344Z,54.20
2018-07-10T05:20:58.735Z,54.70
2018-07-10T05:23:27.783Z,52.10
2018-07-10T05:25:57.290Z,52.90
2018-07-10T05:28:27.040Z,53.30
2018-07-10T05:31:01.031Z,52.40
2018-07-10T05:33:30.167Z,51.70
2018-07-10T05:35:59.630Z,51.10
2018-07-10T05:38:36.327Z,51.50
2018-07-10T05:43:38.647Z,52.20
2018-07-10T05:46:07.834Z,51.10
2018-07-10T05:48:37.481Z,51.50
2018-07-10T05:51:07.154Z,52.10
2018-07-10T05:53:36.049Z,51.40
2018-07-10T05:56:04.923Z,51.30
2018-07-10T05:58:34.026Z,50.30
2018-07-10T06:01:02.827Z,51.80
2018-07-10T06:03:31.694Z,50.80
2018-07-10T06:06:00.755Z,51.40
2018-07-10T06:10:58.177Z,48.40
2018-07-10T06:13:27.346Z,49.60
2018-07-10T06:15:56.301Z,49.10
2018-07-10T06:18:25.238Z,47.70
2018-07-10T06:20:54.186Z,47.10
2018-07-10T06:23:23.126Z,45.40
2018-07-10T06:28:28.345Z,46.60
2018-07-10T06:31:01.738Z,48.50
2018-07-10T06:33:30.766Z,47.30
2018-07-10T06:36:07.126Z,44.80
2018-07-10T06:38:42.385Z,44.50
2018-07-10T06:41:12.079Z,46.80
2018-07-10T06:43:48.252Z,44.60
2018-07-10T06:46:18.110Z,46.50
2018-07-10T06:48:49.837Z,45.50
2018-07-10T06:51:19.709Z,46.60
2018-07-10T06:53:50.994Z,47.00
2018-07-10T06:56:28.566Z,44.70
2018-07-10T06:58:58.192Z,43.30
2018-07-10T07:01:27.098Z,42.50
2018-07-10T07:04:00.139Z,42.70
2018-07-10T07:06:29.367Z,42.70
2018-07-10T07:08:58.291Z,43.00
2018-07-10T07:11:27.424Z,43.80
2018-07-10T07:13:56.419Z,40.50
2018-07-10T07:16:25.393Z,42.50
2018-07-10T07:18:54.855Z,39.90
2018-07-10T07:21:23.770Z,40.80
2018-07-10T07:23:52.723Z,41.40
2018-07-10T07:26:21.694Z,38.10
2018-07-10T07:28:50.619Z,38.50
2018-07-10T07:31:19.578Z,36.20
2018-07-10T07:33:48.512Z,35.80
2018-07-10T07:36:17.355Z,37.00
2018-07-10T07:38:46.221Z,36.40
2018-07-10T07:41:15.295Z,35.40
2018-07-10T07:43:44.238Z,35.40
2018-07-10T07:46:13.119Z,31.20
2018-07-10T07:48:42.083Z,32.10
2018-07-10T07:51:11.003Z,31.50
2018-07-10T07:53:39.982Z,32.50
2018-07-10T07:56:08.895Z,30.40
2018-07-10T07:58:37.822Z,30.80
2018-07-10T08:01:06.778Z,31.40
2018-07-10T08:03:36.548Z,29.70
2018-07-10T08:06:06.179Z,31.10
2018-07-10T08:08:35.428Z,27.00
2018-07-10T08:11:04.393Z,25.70
2018-07-10T08:13:33.368Z,26.10
2018-07-10T08:18:30.828Z,23.90
2018-07-10T08:20:59.735Z,25.10
2018-07-10T08:23:28.687Z,25.00
2018-07-10T08:25:58.724Z,22.40
2018-07-10T08:28:27.754Z,20.60
2018-07-10T08:30:56.769Z,21.10
2018-07-10T08:33:25.852Z,22.90
2018-07-10T08:35:54.787Z,21.80
2018-07-10T08:38:37.504Z,20.20
2018-07-10T08:41:06.580Z,19.70
2018-07-10T08:43:35.587Z,20.20
2018-07-10T08:46:04.527Z,21.80
2018-07-10T08:48:33.500Z,22.20
2018-07-10T08:51:02.463Z,21.50
2018-07-10T08:55:59.913Z,21.30
2018-07-10T08:58:28.884Z,19.00
2018-07-10T09:00:57.963Z,19.30
2018-07-10T09:03:26.947Z,18.50
2018-07-10T09:05:55.948Z,19.10
2018-07-10T09:08:25.137Z,18.70
2018-07-10T09:10:54.098Z,17.80
2018-07-10T09:13:23.051Z,16.70
2018-07-10T09:15:52.173Z,17.10
2018-07-10T09:18:21.145Z,16.20
2018-07-10T09:20:51.978Z,15.40
2018-07-10T09:23:21.844Z,15.70
2018-07-10T09:25:56.025Z,15.50
2018-07-10T09:30:48.921Z,14.20
2018-07-10T09:33:17.930Z,13.60
2018-07-10T09:35:46.843Z,13.80
2018-07-10T09:38:16.488Z,14.20
2018-07-10T09:40:45.856Z,15.10
2018-07-10T09:43:14.832Z,15.70
2018-07-10T09:45:45.324Z,17.20
2018-07-10T09:48:14.519Z,17.50
2018-07-10T09:50:43.479Z,20.10
2018-07-10T09:53:12.685Z,21.60
2018-07-10T09:55:41.679Z,21.20
2018-07-10T09:58:11.047Z,21.10
2018-07-10T10:00:45.434Z,21.30
2018-07-10T10:03:14.383Z,19.90
2018-07-10T10:05:44.538Z,20.20
2018-07-10T10:08:13.995Z,22.10
2018-07-10T10:10:42.904Z,21.30
2018-07-10T10:13:11.860Z,21.20
2018-07-10T10:15:40.816Z,22.90
2018-07-10T10:18:10.250Z,23.60
2018-07-10T10:20:41.195Z,22.90
2018-07-10T10:25:41.201Z,23.80
2018-07-10T10:28:10.896Z,23.20
2018-07-10T10:30:40.547Z,23.20
2018-07-10T10:33:10.358Z,23.00
2018-07-10T10:35:39.568Z,20.50
2018-07-10T10:38:08.482Z,19.70
2018-07-10T10:40:38.839Z,19.70
2018-07-10T10:43:10.182Z,19.00
2018-07-10T10:45:43.027Z,19.00
2018-07-10T10:48:13.690Z,19.40
2018-07-10T10:50:44.540Z,19.80
2018-07-10T10:53:13.607Z,21.70
2018-07-10T10:55:42.625Z,21.70
2018-07-10T10:58:11.551Z,22.10
2018-07-10T11:00:41.372Z,23.10
2018-07-10T11:03:10.801Z,23.60
2018-07-10T11:05:40.400Z,24.20
2018-07-10T11:08:09.452Z,25.00
2018-07-10T11:10:38.491Z,24.60
2018-07-10T11:13:07.506Z,24.50
2018-07-10T11:15:42.061Z,24.50
2018-07-10T11:18:13.244Z,24.50
2018-07-10T11:20:49.228Z,24.30
2018-07-10T11:23:30.443Z,25.00
2018-07-10T11:26:06.604Z,24.80
2018-07-10T11:28:35.559Z,25.60
2018-07-10T11:31:04.504Z,25.00
2018-07-10T11:33:33.588Z,26.50
2018-07-10T11:38:26.479Z,25.10
2018-07-10T11:40:55.471Z,25.90
2018-07-10T11:43:24.520Z,26.50
2018-07-10T11:45:53.438Z,27.20
2018-07-10T11:48:22.436Z,27.20
2018-07-10T11:50:51.405Z,26.90
2018-07-10T11:53:20.576Z,26.70
2018-07-10T11:55:49.558Z,27.30
2018-07-10T11:58:18.487Z,28.50
2018-07-10T12:00:47.541Z,29.00
2018-07-10T12:03:16.548Z,27.30
2018-07-10T12:05:45.432Z,27.80
2018-07-10T12:08:14.419Z,28.00
2018-07-10T12:10:44.905Z,27.60
2018-07-10T12:15:42.237Z,28.60
2018-07-10T12:18:14.605Z,27.80
2018-07-10T12:20:44.024Z,29.10
2018-07-10T12:23:13.295Z,29.50
2018-07-10T12:25:43.872Z,29.70
2018-07-10T12:28:13.830Z,30.10
2018-07-10T12:30:42.823Z,30.70
2018-07-10T12:33:11.833Z,28.70
2018-07-10T12:35:40.661Z,29.20
2018-07-10T12:38:09.551Z,30.80
2018-07-10T12:40:38.565Z,29.40
2018-07-10T12:43:07.502Z,29.50
2018-07-10T12:45:36.606Z,30.80
2018-07-10T12:48:05.526Z,31.20
2018-07-10T12:50:34.465Z,31.50
2018-07-10T12:53:03.702Z,32.30
2018-07-10T12:55:34.778Z,32.30
2018-07-10T12:58:03.791Z,32.80
2018-07-10T13:03:02.326Z,31.10
2018-07-10T13:05:37.608Z,30.00
2018-07-10T13:08:06.790Z,30.20
2018-07-10T13:10:35.653Z,31.30
2018-07-10T13:13:04.596Z,31.40
2018-07-10T13:15:33.526Z,31.50
2018-07-10T13:18:02.535Z,29.70
2018-07-10T13:20:31.442Z,31.20
2018-07-10T13:23:00.650Z,30.80
2018-07-10T13:27:57.996Z,30.00
2018-07-10T13:30:26.951Z,30.50
2018-07-10T13:32:55.891Z,30.00
2018-07-10T13:35:24.870Z,31.00
2018-07-10T13:37:53.956Z,30.30
2018-07-10T13:40:22.899Z,30.40
2018-07-10T13:42:56.537Z,31.20
2018-07-10T13:45:26.441Z,31.00
2018-07-10T13:47:55.362Z,31.20
2018-07-10T13:50:26.504Z,30.30
2018-07-10T13:52:57.474Z,31.70
2018-07-10T13:55:27.026Z,30.70
2018-07-10T13:58:09.964Z,31.10
2018-07-10T14:00:42.181Z,31.80
2018-07-10T14:03:11.370Z,31.90
2018-07-10T14:05:40.765Z,31.30
2018-07-10T14:08:09.848Z,32.20
2018-07-10T14:10:39.350Z,32.50
2018-07-10T14:13:08.379Z,32.70
2018-07-10T14:15:37.389Z,31.50
2018-07-10T14:18:06.588Z,33.80
2018-07-10T14:20:44.322Z,32.30
2018-07-10T14:23:13.873Z,31.20
2018-07-10T14:25:43.050Z,31.10
2018-07-10T14:28:12.480Z,31.70
2018-07-10T14:30:41.394Z,31.70
2018-07-10T14:33:10.381Z,31.70
2018-07-10T14:35:39.329Z,31.70
2018-07-10T14:38:10.121Z,32.50
2018-07-10T14:40:44.701Z,33.50
2018-07-10T14:43:18.894Z,33.00
2018-07-10T14:45:48.262Z,32.60
2018-07-10T14:48:17.231Z,32.30
2018-07-10T14:50:46.146Z,33.20
2018-07-10T14:53:15.038Z,34.40
2018-07-10T14:55:43.962Z,34.30
2018-07-10T14:58:12.874Z,35.10
2018-07-10T15:00:41.987Z,34.60
2018-07-10T15:03:10.843Z,35.40
2018-07-10T15:05:39.654Z,34.30
2018-07-10T15:08:08.680Z,36.00
2018-07-10T15:10:37.553Z,35.70
2018-07-10T15:13:06.360Z,36.30
2018-07-10T15:15:35.580Z,35.90
2018-07-10T15:21:38.032Z,35.20
2018-07-10T15:24:08.025Z,36.50
2018-07-10T15:26:36.968Z,34.20
2018-07-10T15:29:05.876Z,34.60
2018-07-10T15:31:34.774Z,34.00
2018-07-10T15:34:03.713Z,33.50
2018-07-10T15:36:32.751Z,32.80
2018-07-10T15:39:03.362Z,33.30
2018-07-10T15:41:32.292Z,34.10
2018-07-10T15:44:01.410Z,34.00
2018-07-10T15:46:30.393Z,33.70
2018-07-10T15:48:59.205Z,34.50
2018-07-10T15:51:28.160Z,34.40
2018-07-10T15:53:57.119Z,35.70
2018-07-10T15:56:26.032Z,35.90
2018-07-10T16:03:52.449Z,35.40
2018-07-10T16:06:21.457Z,36.20
2018-07-10T16:11:18.962Z,35.50
2018-07-10T16:13:48.106Z,36.40
2018-07-10T16:16:19.542Z,36.50
2018-07-10T16:21:18.531Z,37.60
2018-07-10T16:28:46.300Z,36.30
2018-07-10T16:36:13.217Z,36.40
2018-07-10T16:38:43.358Z,37.50
2018-07-10T16:41:18.521Z,38.00
2018-07-10T16:43:48.021Z,37.70
2018-07-10T16:46:21.823Z,38.70
2018-07-10T16:49:53.623Z,38.70
2018-07-10T16:52:56.014Z,38.30
2018-07-10T16:55:25.140Z,37.80
2018-07-10T16:57:54.241Z,38.80
2018-07-10T17:00:24.371Z,38.00
2018-07-10T17:02:54.793Z,38.80
2018-07-10T17:05:24.405Z,39.00
2018-07-10T17:07:53.596Z,38.40
2018-07-10T17:10:22.738Z,38.30
2018-07-10T17:12:51.637Z,38.30
2018-07-10T17:17:49.093Z,40.00
2018-07-10T17:20:17.919Z,39.30
2018-07-10T17:25:16.670Z,40.10
2018-07-10T17:30:14.256Z,39.70
2018-07-10T17:32:43.211Z,39.80
2018-07-10T17:35:12.138Z,40.30
2018-07-10T17:37:44.944Z,39.40
2018-07-10T17:40:14.139Z,40.70
2018-07-10T17:42:43.162Z,40.20
2018-07-10T17:45:19.958Z,40.30
2018-07-10T17:47:49.244Z,41.20
2018-07-10T17:52:46.778Z,42.00
2018-07-10T17:55:15.937Z,41.40
2018-07-10T17:57:44.882Z,42.10
2018-07-10T18:00:13.817Z,42.20
2018-07-10T18:02:42.811Z,42.70
2018-07-10T18:05:11.730Z,42.60
2018-07-10T18:07:41.105Z,43.10
2018-07-10T18:10:09.988Z,43.30
2018-07-10T18:12:38.896Z,43.00
2018-07-10T18:15:07.853Z,43.80
2018-07-10T18:17:36.925Z,44.40
2018-07-10T18:20:06.614Z,44.40
2018-07-10T18:22:36.656Z,44.10
2018-07-10T18:25:05.701Z,44.40
2018-07-10T18:27:34.543Z,44.40
2018-07-10T18:30:03.624Z,44.70
2018-07-10T18:32:32.572Z,44.90
2018-07-10T18:35:01.432Z,45.10
2018-07-10T18:37:30.803Z,45.70
2018-07-10T18:39:59.738Z,44.70
2018-07-10T18:42:28.759Z,45.20
2018-07-10T18:44:57.861Z,46.00
2018-07-10T18:47:26.789Z,46.00
2018-07-10T18:49:56.522Z,46.00
2018-07-10T18:52:32.080Z,46.00
2018-07-10T18:55:02.000Z,46.50
2018-07-10T18:57:41.289Z,46.90
2018-07-10T19:00:10.266Z,46.60
2018-07-10T19:02:49.341Z,46.50
2018-07-10T19:07:46.669Z,46.60
2018-07-10T19:10:15.683Z,46.90
2018-07-10T19:15:12.997Z,47.40
2018-07-10T19:17:42.148Z,47.50
2018-07-10T19:20:12.441Z,47.20
2018-07-10T19:22:49.764Z,47.80
2018-07-10T19:25:18.859Z,48.20
2018-07-10T19:27:51.137Z,47.00
2018-07-10T19:30:21.321Z,47.30
2018-07-10T19:32:50.234Z,48.10
2018-07-10T19:37:47.709Z,45.60
2018-07-10T19:40:17.216Z,46.30
2018-07-10T19:42:46.220Z,46.00
2018-07-10T19:45:15.314Z,46.70
2018-07-10T19:47:44.207Z,46.70
2018-07-10T19:50:16.546Z,47.50
2018-07-10T19:52:52.974Z,47.60
2018-07-10T19:55:24.719Z,48.00
2018-07-10T19:58:03.489Z,47.80
2018-07-10T20:00:46.060Z,48.20
2018-07-10T20:03:23.044Z,48.80
2018-07-10T20:05:52.936Z,48.40
2018-07-10T20:10:55.813Z,49.10
2018-07-10T20:13:36.349Z,49.60
2018-07-10T20:19:42.882Z,49.90
2018-07-10T20:22:15.368Z,50.30
2018-07-10T20:25:04.126Z,50.70
2018-07-10T20:27:46.941Z,50.60
2018-07-10T20:30:36.970Z,51.00
2018-07-10T20:33:11.688Z,50.80
2018-07-10T20:35:46.993Z,51.50
2018-07-10T20:38:16.754Z,50.80
2018-07-10T20:40:45.730Z,51.50
2018-07-10T20:43:20.116Z,51.90
2018-07-10T20:45:55.500Z,51.10
2018-07-10T20:49:00.955Z,50.90
2018-07-10T20:51:33.666Z,51.40
2018-07-10T20:54:25.137Z,50.80
2018-07-10T20:57:03.926Z,51.10
2018-07-10T20:59:42.099Z,51.20
2018-07-10T21:02:30.887Z,50.00
2018-07-10T21:05:07.369Z,50.70
2018-07-10T21:10:17.058Z,50.10
2018-07-10T21:12:54.379Z,50.50
2018-07-10T21:16:36.871Z,51.00
2018-07-10T21:19:16.648Z,51.10
2018-07-10T21:24:04.027Z,51.80
2018-07-10T21:27:07.683Z,52.40
2018-07-10T21:29:40.632Z,52.40
2018-07-10T21:32:15.010Z,52.40
2018-07-10T21:34:48.708Z,51.90
2018-07-10T21:37:38.786Z,52.30
2018-07-10T21:40:28.772Z,51.60
2018-07-10T21:43:22.387Z,52.20
2018-07-10T21:46:38.641Z,52.10
2018-07-10T21:49:10.782Z,51.90
2018-07-10T21:51:41.515Z,51.90
2018-07-10T21:54:10.422Z,52.30
2018-07-10T21:56:39.335Z,52.30
2018-07-10T21:59:08.536Z,52.90
2018-07-10T22:02:18.806Z,52.80
2018-07-10T22:04:47.789Z,52.10
2018-07-10T22:07:16.843Z,51.30
2018-07-10T22:12:18.181Z,51.70
2018-07-10T22:14:47.851Z,51.80
2018-07-10T22:17:23.042Z,51.70
2018-07-10T22:19:53.417Z,52.20
2018-07-10T22:22:26.352Z,52.10
2018-07-10T22:24:57.629Z,52.20
2018-07-10T22:30:03.405Z,52.40
2018-07-10T22:32:40.676Z,51.90
2018-07-10T22:35:09.684Z,52.10
2018-07-10T22:37:38.660Z,51.20
2018-07-10T22:40:08.785Z,51.80
2018-07-10T22:42:37.978Z,51.60
2018-07-10T22:45:06.877Z,51.80
2018-07-10T22:47:39.041Z,51.20
2018-07-10T22:50:13.021Z,51.70
2018-07-10T22:52:48.151Z,51.40
2018-07-10T22:55:20.450Z,52.00
2018-07-10T22:57:50.620Z,51.70
2018-07-10T23:00:26.269Z,52.30
2018-07-10T23:02:55.258Z,52.30
2018-07-10T23:07:52.724Z,51.80
2018-07-10T23:10:21.845Z,52.30
2018-07-10T23:12:50.845Z,51.80
2018-07-10T23:15:19.823Z,52.30
2018-07-10T23:17:49.004Z,52.80
2018-07-10T23:20:17.991Z,52.60
2018-07-10T23:22:54.782Z,53.00
2018-07-10T23:25:25.558Z,53.10
2018-07-10T23:30:29.531Z,54.00
2018-07-10T23:32:58.447Z,53.90
2018-07-10T23:35:27.370Z,54.00
2018-07-10T23:37:57.619Z,53.30
2018-07-10T23:40:26.527Z,53.80
2018-07-10T23:42:55.473Z,53.00
2018-07-10T23:45:28.165Z,53.50
2018-07-10T23:48:01.997Z,53.90
2018-07-10T23:50:31.358Z,53.30
2018-07-10T23:53:11.174Z,53.40
2018-07-10T23:55:40.083Z,53.10
2018-07-10T23:58:08.923Z,52.50
